createdAt,value
2018-12-23T00:01:11.614Z,25.30
2018-12-23T00:03:41.048Z,22.30
2018-12-23T00:06:10.598Z,23.73
2018-12-23T00:08:40.220Z,22.40
2018-12-23T00:11:09.815Z,21.90
2018-12-23T00:13:39.472Z,19.77
2018-12-23T00:16:08.998Z,19.70
2018-12-23T00:18:38.754Z,20.47
2018-12-23T00:21:08.257Z,19.13
2018-12-23T00:23:37.808Z,20.27
2018-12-23T00:26:07.382Z,20.20
2018-12-23T00:28:36.842Z,22.47
2018-12-23T00:31:06.511Z,19.33
2018-12-23T00:33:36.014Z,19.30
2018-12-23T00:36:05.356Z,20.83
2018-12-23T00:38:35.017Z,20.00
2018-12-23T00:41:04.518Z,18.53
2018-12-23T00:43:34.110Z,18.03
2018-12-23T00:46:03.738Z,16.43
2018-12-23T00:48:33.435Z,15.37
2018-12-23T00:51:03.066Z,15.60
2018-12-23T00:53:32.511Z,16.67
2018-12-23T00:56:02.121Z,17.57
2018-12-23T00:58:31.722Z,16.57
2018-12-23T01:01:01.434Z,16.00
2018-12-23T01:03:31.068Z,15.63
2018-12-23T01:06:00.531Z,15.03
2018-12-23T01:09:13.056Z,14.77
2018-12-23T01:11:55.060Z,13.77
2018-12-23T01:14:36.253Z,14.00
2018-12-23T01:17:17.866Z,15.70
2018-12-23T01:19:59.008Z,14.43
2018-12-23T01:22:40.224Z,18.47
2018-12-23T01:25:22.019Z,16.63
2018-12-23T01:28:04.177Z,16.67
2018-12-23T01:30:46.097Z,15.83
2018-12-23T01:33:29.160Z,16.10
2018-12-23T01:36:10.396Z,18.80
2018-12-23T01:38:52.213Z,19.30
2018-12-23T01:41:22.781Z,21.20
2018-12-23T01:49:55.249Z,17.13
2018-12-23T01:52:25.725Z,16.20
2018-12-23T02:00:58.531Z,17.90
2018-12-23T02:03:29.212Z,16.97
2018-12-23T02:08:54.537Z,18.37
2018-12-23T02:11:25.132Z,20.23
2018-12-23T02:14:26.274Z,21.90
2018-12-23T02:20:17.812Z,18.77
2018-12-23T02:26:08.948Z,19.50
2018-12-23T02:28:50.835Z,19.77
2018-12-23T02:31:33.801Z,18.47
2018-12-23T02:34:15.909Z,17.90
2018-12-23T02:36:46.668Z,19.90
2018-12-23T02:42:38.104Z,16.50
2018-12-23T02:45:19.917Z,18.67
2018-12-23T02:48:01.737Z,20.67
2018-12-23T02:50:43.673Z,21.77
2018-12-23T02:53:25.728Z,22.43
2018-12-23T02:56:07.689Z,19.20
2018-12-23T02:58:38.501Z,23.00
2018-12-23T03:04:29.664Z,19.73
2018-12-23T03:07:11.631Z,19.83
2018-12-23T03:09:43.368Z,22.70
2018-12-23T03:15:34.385Z,22.87
2018-12-23T03:18:16.335Z,17.97
2018-12-23T03:20:58.318Z,23.87
2018-12-23T03:23:40.235Z,21.30
2018-12-23T03:26:11.010Z,24.87
2018-12-23T03:28:41.583Z,21.10
2018-12-23T03:37:14.826Z,22.00
2018-12-23T03:39:56.527Z,20.23
2018-12-23T03:42:37.986Z,26.70
2018-12-23T03:45:19.095Z,19.77
2018-12-23T03:47:49.774Z,22.23
2018-12-23T03:53:39.486Z,20.80
2018-12-23T03:56:10.196Z,21.70
2018-12-23T03:58:51.819Z,25.67
2018-12-23T04:01:33.837Z,22.33
2018-12-23T04:04:15.720Z,24.43
2018-12-23T04:06:57.828Z,18.10
2018-12-23T04:09:39.822Z,25.47
2018-12-23T04:18:19.768Z,23.87
2018-12-23T04:26:57.753Z,26.77
2018-12-23T04:29:39.775Z,25.47
2018-12-23T04:32:21.501Z,25.97
2018-12-23T04:35:03.552Z,22.97
2018-12-23T04:37:34.337Z,25.73
2018-12-23T04:40:04.948Z,25.47
2018-12-23T04:48:42.080Z,29.57
2018-12-23T04:51:23.989Z,24.87
2018-12-23T04:54:05.076Z,30.33
2018-12-23T04:56:46.890Z,25.43
2018-12-23T04:59:28.283Z,28.27
2018-12-23T05:01:58.944Z,28.77
2018-12-23T05:04:59.918Z,25.83
2018-12-23T05:07:39.074Z,34.50
2018-12-23T05:10:20.268Z,32.53
2018-12-23T05:13:02.354Z,31.20
2018-12-23T05:15:44.532Z,29.67
2018-12-23T05:18:26.433Z,27.23
2018-12-23T05:21:08.593Z,26.67
2018-12-23T05:23:50.551Z,28.83
2018-12-23T05:26:32.586Z,29.50
2018-12-23T05:29:03.231Z,27.17
2018-12-23T05:37:35.924Z,30.07
2018-12-23T05:40:17.076Z,27.83
2018-12-23T05:42:58.629Z,29.00
2018-12-23T05:45:40.406Z,27.57
2018-12-23T05:48:21.612Z,29.77
2018-12-23T05:51:02.663Z,29.87
2018-12-23T05:53:43.919Z,28.90
2018-12-23T05:56:25.704Z,26.43
2018-12-23T05:58:56.502Z,26.83
2018-12-23T06:04:47.701Z,25.77
2018-12-23T06:07:29.297Z,25.20
2018-12-23T06:10:11.196Z,27.83
2018-12-23T06:12:52.820Z,23.40
2018-12-23T06:15:23.437Z,28.17
2018-12-23T06:18:12.595Z,25.20
2018-12-23T06:20:54.584Z,24.67
2018-12-23T06:23:35.870Z,28.83
2018-12-23T06:26:06.611Z,28.33
2018-12-23T06:31:58.181Z,23.63
2018-12-23T06:34:40.230Z,26.73
2018-12-23T06:37:10.997Z,29.33
2018-12-23T06:43:01.872Z,28.90
2018-12-23T06:45:32.566Z,31.20
2018-12-23T06:48:03.131Z,34.00
2018-12-23T06:56:43.857Z,32.23
2018-12-23T06:59:14.439Z,29.80
2018-12-23T07:07:47.704Z,37.50
2018-12-23T07:10:18.288Z,39.53
2018-12-23T07:16:19.191Z,39.47
2018-12-23T07:22:00.145Z,38.90
2018-12-23T07:24:41.979Z,37.67
2018-12-23T07:27:12.665Z,38.43
2018-12-23T07:32:52.882Z,36.50
2018-12-23T07:38:43.897Z,39.50
2018-12-23T07:41:25.903Z,39.37
2018-12-23T07:43:56.664Z,35.23
2018-12-23T07:49:36.818Z,37.03
2018-12-23T07:55:27.737Z,37.47
2018-12-23T07:58:09.545Z,37.83
2018-12-23T08:00:40.289Z,37.90
2018-12-23T08:03:41.196Z,33.90
2018-12-23T08:06:13.624Z,35.03
2018-12-23T08:08:55.447Z,37.67
2018-12-23T08:11:26.152Z,35.03
2018-12-23T08:14:26.951Z,34.07
2018-12-23T08:16:58.845Z,36.37
2018-12-23T08:19:40.324Z,33.20
2018-12-23T08:22:10.965Z,35.83
2018-12-23T08:28:01.899Z,32.07
2018-12-23T08:30:43.051Z,37.13
2018-12-23T08:33:13.712Z,37.37
2018-12-23T08:39:05.351Z,29.80
2018-12-23T08:41:46.576Z,30.87
2018-12-23T08:44:27.903Z,31.63
2018-12-23T08:47:09.028Z,30.37
2018-12-23T08:49:50.912Z,29.80
2018-12-23T08:52:32.911Z,28.27
2018-12-23T08:55:03.572Z,33.83
2018-12-23T09:00:54.381Z,31.60
2018-12-23T09:03:35.818Z,28.03
2018-12-23T09:06:06.556Z,29.70
2018-12-23T09:08:47.845Z,28.90
2018-12-23T09:11:29.764Z,35.27
2018-12-23T09:14:11.749Z,30.53
2018-12-23T09:16:53.618Z,32.80
2018-12-23T09:19:35.552Z,29.63
2018-12-23T09:22:19.761Z,32.53
2018-12-23T09:25:01.642Z,33.83
2018-12-23T09:27:43.408Z,31.10
2018-12-23T09:30:24.593Z,34.27
2018-12-23T09:33:05.830Z,32.13
2018-12-23T09:35:36.496Z,32.90
2018-12-23T09:43:57.618Z,33.77
2018-12-23T09:49:48.653Z,31.10
2018-12-23T09:52:30.637Z,32.30
2018-12-23T09:55:01.292Z,29.03
2018-12-23T09:58:04.636Z,31.03
2018-12-23T10:00:33.654Z,34.87
2018-12-23T10:03:15.532Z,33.93
2018-12-23T10:05:46.295Z,31.67
2018-12-23T10:11:37.904Z,34.13
2018-12-23T10:14:19.120Z,31.20
2018-12-23T10:17:00.398Z,34.10
2018-12-23T10:19:42.313Z,36.67
2018-12-23T10:22:23.786Z,37.50
2018-12-23T10:25:05.562Z,30.00
2018-12-23T10:27:36.244Z,31.93
2018-12-23T10:33:27.203Z,33.87
2018-12-23T10:36:08.874Z,32.53
2018-12-23T10:38:39.736Z,35.97
2018-12-23T10:44:30.805Z,36.70
2018-12-23T10:47:12.588Z,33.37
2018-12-23T10:49:53.804Z,33.47
2018-12-23T10:52:35.037Z,34.53
2018-12-23T10:55:16.493Z,35.30
2018-12-23T10:57:58.425Z,34.80
2018-12-23T11:00:29.118Z,35.17
2018-12-23T11:06:09.324Z,36.27
2018-12-23T11:08:39.856Z,36.30
2018-12-23T11:17:21.437Z,33.27
2018-12-23T11:20:03.029Z,31.63
2018-12-23T11:22:45.053Z,31.87
2018-12-23T11:25:27.108Z,38.77
2018-12-23T11:28:09.052Z,30.20
2018-12-23T11:30:50.136Z,34.60
2018-12-23T11:33:31.869Z,29.57
2018-12-23T11:36:13.073Z,31.23
2018-12-23T11:38:54.959Z,29.70
2018-12-23T11:41:36.993Z,28.93
2018-12-23T11:44:07.748Z,28.30
2018-12-23T11:49:58.973Z,29.23
2018-12-23T11:52:40.877Z,26.37
2018-12-23T11:55:22.824Z,28.03
2018-12-23T11:58:04.344Z,29.33
2018-12-23T12:00:46.229Z,29.77
2018-12-23T12:03:28.176Z,28.47
2018-12-23T12:06:09.510Z,30.33
2018-12-23T12:08:50.647Z,33.83
2018-12-23T12:11:32.021Z,33.63
2018-12-23T12:14:14.000Z,27.23
2018-12-23T12:16:55.277Z,27.10
2018-12-23T12:19:37.201Z,26.83
2018-12-23T12:22:18.420Z,27.90
2018-12-23T12:24:59.687Z,30.00
2018-12-23T12:27:41.463Z,29.30
2018-12-23T12:30:23.231Z,32.80
2018-12-23T12:33:04.644Z,30.37
2018-12-23T12:35:46.628Z,31.60
2018-12-23T12:38:28.003Z,27.17
2018-12-23T12:41:09.759Z,32.47
2018-12-23T12:43:51.007Z,26.63
2018-12-23T12:46:32.593Z,29.63
2018-12-23T12:49:14.637Z,28.27
2018-12-23T12:51:56.532Z,30.57
2018-12-23T12:54:38.426Z,27.10
2018-12-23T12:57:20.332Z,28.03
2018-12-23T13:00:02.280Z,27.77
2018-12-23T13:02:32.894Z,25.60
2018-12-23T13:10:59.595Z,25.03
2018-12-23T13:16:50.817Z,25.07
2018-12-23T13:19:32.844Z,30.00
2018-12-23T13:22:14.149Z,30.77
2018-12-23T13:24:55.317Z,33.37
2018-12-23T13:27:36.491Z,33.53
2018-12-23T13:30:17.641Z,30.73
2018-12-23T13:32:58.802Z,42.73
2018-12-23T13:35:40.743Z,34.73
2018-12-23T13:38:22.340Z,34.63
2018-12-23T13:41:04.440Z,39.33
2018-12-23T13:43:46.473Z,39.73
2018-12-23T13:46:28.477Z,41.93
2018-12-23T13:49:10.577Z,34.43
2018-12-23T13:52:05.109Z,35.50
2018-12-23T13:54:46.898Z,39.10
2018-12-23T13:57:28.358Z,43.73
2018-12-23T14:00:10.278Z,30.87
2018-12-23T14:02:52.061Z,41.87
2018-12-23T14:06:14.312Z,42.73
2018-12-23T14:09:18.629Z,43.53
2018-12-23T14:15:09.950Z,45.23
2018-12-23T14:17:51.791Z,42.97
2018-12-23T14:20:32.918Z,44.43
2018-12-23T14:23:14.025Z,44.77
2018-12-23T14:25:44.843Z,37.33
2018-12-23T14:28:15.472Z,33.73
2018-12-23T14:30:46.036Z,37.00
2018-12-23T14:39:12.617Z,36.70
2018-12-23T14:45:07.200Z,31.70
2018-12-23T14:47:49.332Z,27.60
2018-12-23T14:50:30.593Z,28.20
2018-12-23T14:53:12.361Z,28.40
2018-12-23T14:55:53.783Z,29.17
2018-12-23T14:58:24.528Z,30.03
2018-12-23T15:03:50.817Z,25.70
2018-12-23T15:06:21.515Z,28.03
2018-12-23T15:11:59.217Z,28.17
2018-12-23T15:14:29.859Z,27.00
2018-12-23T15:17:00.581Z,30.17
2018-12-23T15:25:41.874Z,31.87
2018-12-23T15:28:12.712Z,34.17
2018-12-23T15:33:39.231Z,47.47
2018-12-23T15:42:26.725Z,48.67
2018-12-23T15:44:57.384Z,49.43
2018-12-23T15:50:35.389Z,45.77
2018-12-23T15:53:17.226Z,43.23
2018-12-23T15:55:59.158Z,45.97
2018-12-23T15:58:40.837Z,46.60
2018-12-23T16:01:21.985Z,48.47
2018-12-23T16:03:52.596Z,51.67
2018-12-23T16:06:23.256Z,57.00
2018-12-23T16:15:00.676Z,48.93
2018-12-23T16:17:31.414Z,50.23
2018-12-23T16:26:03.105Z,47.27
2018-12-23T16:34:36.480Z,41.20
2018-12-23T16:37:07.165Z,41.27
2018-12-23T16:39:37.799Z,42.00
2018-12-23T16:42:08.433Z,41.97
2018-12-23T16:44:57.695Z,45.73
2018-12-23T16:47:28.430Z,47.77
2018-12-23T16:53:19.932Z,43.07
2018-12-23T16:56:01.816Z,43.50
2018-12-23T16:58:32.543Z,44.70
2018-12-23T17:01:36.021Z,43.83
2018-12-23T17:04:04.620Z,40.20
2018-12-23T17:06:46.354Z,47.10
2018-12-23T17:09:17.541Z,42.30
2018-12-23T17:14:57.742Z,40.33
2018-12-23T17:17:46.936Z,41.27
2018-12-23T17:20:28.289Z,39.87
2018-12-23T17:23:09.459Z,41.47
2018-12-23T17:25:50.554Z,40.47
2018-12-23T17:28:31.714Z,42.43
2018-12-23T17:31:13.810Z,42.00
2018-12-23T17:33:54.848Z,36.83
2018-12-23T17:36:36.731Z,39.80
2018-12-23T17:39:18.478Z,42.13
2018-12-23T17:42:01.404Z,43.17
2018-12-23T17:44:42.539Z,38.33
2018-12-23T17:47:24.548Z,40.57
2018-12-23T17:50:06.421Z,38.77
2018-12-23T17:52:48.456Z,39.50
2018-12-23T17:55:30.592Z,34.07
2018-12-23T17:58:12.504Z,33.07
2018-12-23T18:00:54.488Z,32.17
2018-12-23T18:03:36.296Z,32.90
2018-12-23T18:06:17.812Z,31.77
2018-12-23T18:08:59.020Z,28.80
2018-12-23T18:11:41.153Z,29.77
2018-12-23T18:14:23.129Z,31.97
2018-12-23T18:17:05.101Z,33.23
2018-12-23T18:19:46.825Z,32.40
2018-12-23T18:22:28.848Z,21.90
2018-12-23T18:25:10.160Z,26.80
2018-12-23T18:27:52.014Z,26.67
2018-12-23T18:30:22.714Z,20.67
2018-12-23T18:36:13.604Z,25.13
2018-12-23T18:38:44.252Z,24.43
2018-12-23T18:41:47.457Z,22.60
2018-12-23T18:47:26.851Z,24.67
2018-12-23T18:50:08.773Z,23.57
2018-12-23T18:52:50.663Z,26.90
2018-12-23T18:55:32.542Z,31.47
2018-12-23T18:58:14.318Z,39.87
2018-12-23T19:01:07.563Z,47.40
2018-12-23T19:06:48.765Z,46.90
2018-12-23T19:09:30.044Z,45.33
2018-12-23T19:12:11.920Z,40.60
2018-12-23T19:14:53.525Z,40.67
2018-12-23T19:17:36.588Z,42.30
2018-12-23T19:20:17.792Z,40.60
2018-12-23T19:23:13.453Z,37.37
2018-12-23T19:26:21.476Z,36.93
2018-12-23T19:29:02.945Z,37.67
2018-12-23T19:31:43.995Z,34.43
2018-12-23T19:34:33.728Z,30.67
2018-12-23T19:37:10.068Z,33.23
2018-12-23T19:39:51.912Z,32.43
2018-12-23T19:42:33.876Z,27.57
2018-12-23T19:45:16.055Z,26.90
2018-12-23T19:47:57.684Z,28.57
2018-12-23T19:50:38.887Z,28.77
2018-12-23T19:53:20.837Z,33.97
2018-12-23T19:56:02.573Z,33.40
2018-12-23T19:58:44.610Z,40.97
2018-12-23T20:02:01.904Z,35.40
2018-12-23T20:05:09.833Z,37.83
2018-12-23T20:07:51.588Z,35.97
2018-12-23T20:14:27.992Z,30.47
2018-12-23T20:17:09.161Z,31.27
2018-12-23T20:19:51.097Z,32.20
2018-12-23T20:22:43.919Z,32.73
2018-12-23T20:25:51.873Z,34.10
2018-12-23T20:28:59.824Z,26.10
2018-12-23T20:31:41.705Z,27.80
2018-12-23T20:34:46.090Z,25.33
2018-12-23T20:37:12.009Z,23.10
2018-12-23T20:39:53.203Z,21.73
2018-12-23T20:42:35.014Z,26.13
2018-12-23T20:47:59.600Z,21.73
2018-12-23T20:50:41.760Z,24.50
2018-12-23T20:53:23.518Z,20.53
2018-12-23T20:56:05.966Z,20.37
2018-12-23T20:58:52.681Z,19.07
2018-12-23T21:01:34.281Z,18.00
2018-12-23T21:04:16.341Z,20.33
2018-12-23T21:06:57.702Z,20.97
2018-12-23T21:09:40.313Z,19.17
2018-12-23T21:12:22.228Z,22.90
2018-12-23T21:15:04.204Z,31.37
2018-12-23T21:17:46.201Z,27.93
2018-12-23T21:20:28.332Z,24.83
2018-12-23T21:23:09.501Z,50.43
2018-12-23T21:25:51.686Z,23.77
2018-12-23T21:28:32.879Z,39.27
2018-12-23T21:31:14.774Z,29.83
2018-12-23T21:34:31.684Z,24.93
2018-12-23T21:37:39.679Z,20.10
2018-12-23T21:40:47.621Z,22.53
2018-12-23T21:43:28.872Z,27.63
2018-12-23T21:46:09.956Z,24.13
2018-12-23T21:48:51.126Z,27.13
2018-12-23T21:51:32.952Z,27.40
2018-12-23T21:55:03.013Z,23.83
2018-12-23T22:00:54.600Z,29.23
2018-12-23T22:03:36.575Z,26.40
2018-12-23T22:06:17.707Z,22.03
2018-12-23T22:08:58.815Z,21.93
2018-12-23T22:11:40.581Z,22.93
2018-12-23T22:14:22.604Z,23.50
2018-12-23T22:16:53.172Z,29.47
2018-12-23T22:22:43.931Z,24.10
2018-12-23T22:25:25.424Z,23.67
2018-12-23T22:28:07.008Z,25.27
2018-12-23T22:30:48.956Z,24.27
2018-12-23T22:33:30.293Z,23.00
2018-12-23T22:36:00.876Z,22.50
2018-12-23T22:39:02.136Z,22.20
2018-12-23T22:44:42.941Z,21.20
2018-12-23T22:47:24.913Z,20.60
2018-12-23T22:50:07.789Z,21.33
2018-12-23T22:52:48.888Z,20.67
2018-12-23T22:55:30.592Z,22.10
2018-12-23T22:58:11.860Z,23.80
2018-12-23T23:00:53.016Z,21.97
2018-12-23T23:03:34.920Z,23.57
2018-12-23T23:06:16.085Z,24.00
2018-12-23T23:08:46.657Z,24.20
2018-12-23T23:17:28.173Z,24.33
2018-12-23T23:20:10.211Z,21.13
2018-12-23T23:22:52.296Z,21.40
2018-12-23T23:25:34.152Z,18.90
2018-12-23T23:28:15.453Z,20.60
2018-12-23T23:30:57.392Z,19.27
2018-12-23T23:33:39.056Z,17.67
2018-12-23T23:36:09.648Z,19.03
2018-12-23T23:38:40.182Z,16.07
2018-12-23T23:47:06.304Z,16.93
2018-12-23T23:52:57.440Z,19.43
2018-12-23T23:55:39.128Z,18.33
2018-12-23T23:58:09.766Z,16.07
